createdAt,value
2022-08-16T00:02:58.431Z,12.80
2022-08-16T00:06:01.939Z,13.30
2022-08-16T00:09:05.645Z,13.03
2022-08-16T00:12:10.371Z,13.10
2022-08-16T00:15:17.342Z,13.30
2022-08-16T00:18:22.167Z,12.50
2022-08-16T00:21:32.645Z,12.67
2022-08-16T00:24:35.775Z,13.00
2022-08-16T00:27:40.611Z,13.27
2022-08-16T00:30:43.870Z,13.80
2022-08-16T00:33:50.127Z,12.93
2022-08-16T00:36:55.728Z,14.27
2022-08-16T00:39:59.171Z,13.53
2022-08-16T00:43:05.351Z,13.60
2022-08-16T00:46:33.788Z,11.70
2022-08-16T00:49:39.497Z,12.17
2022-08-16T00:52:51.058Z,12.07
2022-08-16T00:55:57.837Z,13.03
2022-08-16T00:59:02.442Z,12.90
2022-08-16T01:02:30.913Z,12.70
2022-08-16T01:05:33.075Z,13.50
2022-08-16T01:08:37.419Z,13.70
2022-08-16T01:11:53.836Z,12.50
2022-08-16T01:15:01.655Z,12.30
2022-08-16T01:18:08.472Z,13.40
2022-08-16T01:21:45.331Z,14.33
2022-08-16T01:24:55.909Z,12.43
2022-08-16T01:28:02.015Z,12.10
2022-08-16T01:31:08.355Z,12.80
2022-08-16T01:34:23.435Z,14.13
2022-08-16T01:37:35.508Z,12.73
2022-08-16T01:40:40.500Z,12.20
2022-08-16T01:43:46.704Z,13.83
2022-08-16T01:46:57.654Z,13.00
2022-08-16T01:50:43.274Z,12.40
2022-08-16T01:53:24.906Z,12.43
2022-08-16T01:56:34.656Z,12.90
2022-08-16T01:59:38.999Z,13.50
2022-08-16T02:02:44.073Z,14.83
2022-08-16T02:05:55.470Z,13.63
2022-08-16T02:09:00.375Z,13.30
2022-08-16T02:12:50.712Z,12.10
2022-08-16T02:15:35.517Z,13.30
2022-08-16T02:18:46.132Z,13.30
2022-08-16T02:22:08.493Z,13.20
2022-08-16T02:25:17.560Z,13.63
2022-08-16T02:28:23.747Z,13.07
2022-08-16T02:32:03.199Z,13.63
2022-08-16T02:34:50.328Z,13.10
2022-08-16T02:37:55.150Z,12.20
2022-08-16T02:40:59.441Z,12.80
2022-08-16T02:44:04.180Z,13.17
2022-08-16T02:47:07.566Z,12.33
2022-08-16T02:50:53.623Z,12.20
2022-08-16T02:53:34.700Z,12.40
2022-08-16T02:56:38.664Z,12.90
2022-08-16T02:59:44.383Z,13.17
2022-08-16T03:02:47.700Z,13.53
2022-08-16T03:05:59.291Z,13.80
2022-08-16T03:09:02.754Z,12.70
2022-08-16T03:12:07.136Z,12.33
2022-08-16T03:15:15.288Z,12.00
2022-08-16T03:18:40.427Z,11.50
2022-08-16T03:21:44.066Z,12.33
2022-08-16T03:24:47.107Z,12.10
2022-08-16T03:27:50.254Z,11.77
2022-08-16T03:30:55.244Z,11.60
2022-08-16T03:33:58.946Z,12.80
2022-08-16T03:37:02.554Z,11.87
2022-08-16T03:40:07.804Z,11.43
2022-08-16T03:43:20.160Z,11.33
2022-08-16T03:46:44.494Z,12.20
2022-08-16T03:49:51.743Z,10.93
2022-08-16T03:53:01.336Z,11.27
2022-08-16T03:56:19.710Z,12.53
2022-08-16T03:59:24.198Z,12.03
2022-08-16T04:02:31.466Z,11.60
2022-08-16T04:05:36.358Z,12.03
2022-08-16T04:08:40.742Z,11.40
2022-08-16T04:11:43.835Z,11.87
2022-08-16T04:14:48.215Z,11.20
2022-08-16T04:17:54.947Z,12.73
2022-08-16T04:20:58.409Z,12.50
2022-08-16T04:24:03.887Z,13.43
2022-08-16T04:27:11.215Z,14.97
2022-08-16T04:30:31.889Z,11.50
2022-08-16T04:33:39.338Z,10.90
2022-08-16T04:36:54.373Z,11.00
2022-08-16T04:39:57.583Z,11.97
2022-08-16T04:43:01.325Z,11.30
2022-08-16T04:46:04.495Z,11.50
2022-08-16T04:49:44.032Z,12.30
2022-08-16T04:52:50.797Z,12.50
2022-08-16T04:55:53.858Z,13.30
2022-08-16T04:58:57.747Z,14.00
2022-08-16T05:02:01.089Z,12.73
2022-08-16T05:05:06.447Z,13.50
2022-08-16T05:08:28.855Z,13.23
2022-08-16T05:11:33.883Z,12.40
2022-08-16T05:14:45.965Z,12.97
2022-08-16T05:17:58.729Z,12.60
2022-08-16T05:21:11.132Z,13.17
2022-08-16T05:24:15.651Z,12.97
2022-08-16T05:27:27.784Z,12.80
2022-08-16T05:30:35.683Z,13.40
2022-08-16T05:33:42.079Z,13.90
2022-08-16T05:36:46.791Z,14.10
2022-08-16T05:39:55.424Z,15.83
2022-08-16T05:42:58.703Z,15.57
2022-08-16T05:46:02.017Z,13.53
2022-08-16T05:49:08.542Z,14.07
2022-08-16T05:52:17.287Z,14.50
2022-08-16T05:55:23.855Z,14.07
2022-08-16T05:58:33.239Z,14.70
2022-08-16T06:01:38.080Z,14.90
2022-08-16T06:04:44.955Z,16.60
2022-08-16T06:07:58.983Z,16.40
2022-08-16T06:11:10.393Z,13.90
2022-08-16T06:14:14.468Z,14.20
2022-08-16T06:17:18.192Z,15.57
2022-08-16T06:20:35.678Z,13.77
2022-08-16T06:23:42.489Z,17.43
2022-08-16T06:26:57.288Z,14.27
2022-08-16T06:30:01.220Z,14.13
2022-08-16T06:33:06.427Z,14.33
2022-08-16T06:36:17.135Z,13.63
2022-08-16T06:39:25.603Z,14.43
2022-08-16T06:42:39.626Z,12.27
2022-08-16T06:45:51.337Z,13.40
2022-08-16T06:48:54.802Z,12.47
2022-08-16T06:52:02.919Z,20.37
2022-08-16T06:55:13.502Z,17.40
2022-08-16T06:58:21.678Z,13.60
2022-08-16T07:01:43.385Z,14.27
2022-08-16T07:04:49.134Z,13.20
2022-08-16T07:07:55.828Z,13.40
2022-08-16T07:11:01.576Z,12.67
2022-08-16T07:14:26.498Z,13.13
2022-08-16T07:17:29.065Z,12.20
2022-08-16T07:20:46.998Z,12.03
2022-08-16T07:23:51.130Z,14.23
2022-08-16T07:27:03.402Z,22.33
2022-08-16T07:30:38.168Z,33.20
2022-08-16T07:33:52.866Z,32.30
2022-08-16T07:36:58.842Z,20.60
2022-08-16T07:40:02.396Z,17.03
2022-08-16T07:43:15.700Z,17.10
2022-08-16T07:46:37.907Z,15.40
2022-08-16T07:49:53.078Z,25.30
2022-08-16T07:53:01.887Z,22.27
2022-08-16T07:56:06.277Z,15.57
2022-08-16T07:59:11.479Z,20.17
2022-08-16T08:02:20.420Z,18.93
2022-08-16T08:05:35.726Z,44.17
2022-08-16T08:08:50.489Z,35.37
2022-08-16T08:11:59.999Z,30.80
2022-08-16T08:15:09.650Z,24.03
2022-08-16T08:18:29.276Z,24.43
2022-08-16T08:21:59.636Z,21.00
2022-08-16T08:24:59.083Z,20.77
2022-08-16T08:28:06.658Z,21.47
2022-08-16T08:31:17.220Z,19.03
2022-08-16T08:34:22.067Z,18.60
2022-08-16T08:37:27.113Z,19.57
2022-08-16T08:40:50.146Z,18.80
2022-08-16T08:43:53.229Z,17.87
2022-08-16T08:47:00.553Z,18.03
2022-08-16T08:50:05.194Z,18.60
2022-08-16T08:53:09.253Z,20.23
2022-08-16T08:56:22.940Z,18.53
2022-08-16T08:59:28.172Z,16.90
2022-08-16T09:02:32.714Z,17.20
2022-08-16T09:05:37.438Z,17.77
2022-08-16T09:08:40.618Z,17.23
2022-08-16T09:12:04.156Z,18.00
2022-08-16T09:15:13.863Z,17.37
2022-08-16T09:18:25.083Z,15.50
2022-08-16T09:21:31.219Z,16.80
2022-08-16T09:24:51.755Z,15.80
2022-08-16T09:28:02.851Z,11.80
2022-08-16T09:31:13.344Z,12.70
2022-08-16T09:34:19.553Z,9.60
2022-08-16T09:37:29.701Z,9.50
2022-08-16T09:40:43.739Z,10.30
2022-08-16T09:43:58.673Z,11.70
2022-08-16T09:47:10.273Z,10.10
2022-08-16T09:50:22.713Z,11.17
2022-08-16T09:53:26.888Z,10.57
2022-08-16T09:56:34.037Z,11.77
2022-08-16T09:59:38.443Z,11.27
2022-08-16T10:02:48.127Z,9.83
2022-08-16T10:05:52.857Z,11.27
2022-08-16T10:09:05.213Z,10.73
2022-08-16T10:12:28.267Z,11.20
2022-08-16T10:15:31.599Z,10.60
2022-08-16T10:18:56.629Z,11.03
2022-08-16T10:22:05.249Z,10.87
2022-08-16T10:25:09.678Z,10.23
2022-08-16T10:28:28.932Z,9.50
2022-08-16T10:31:43.663Z,12.53
2022-08-16T10:34:52.176Z,12.33
2022-08-16T10:37:56.891Z,11.87
2022-08-16T10:41:00.867Z,11.37
2022-08-16T10:44:04.515Z,11.40
2022-08-16T10:47:13.056Z,10.57
2022-08-16T10:50:18.949Z,9.60
2022-08-16T10:53:24.755Z,9.20
2022-08-16T10:56:52.118Z,8.87
2022-08-16T10:59:59.192Z,9.30
2022-08-16T11:03:05.257Z,8.63
2022-08-16T11:06:12.141Z,9.20
2022-08-16T11:09:25.456Z,8.53
2022-08-16T11:12:31.754Z,9.20
2022-08-16T11:15:35.422Z,9.60
2022-08-16T11:18:48.936Z,10.20
2022-08-16T11:22:38.969Z,9.17
2022-08-16T11:32:20.134Z,8.77
2022-08-16T11:38:56.973Z,9.23
2022-08-16T11:42:03.125Z,7.37
2022-08-16T11:45:26.303Z,8.83
2022-08-16T11:48:33.412Z,8.60
2022-08-16T11:51:36.546Z,9.90
2022-08-16T11:54:40.287Z,8.33
2022-08-16T11:57:44.748Z,8.97
2022-08-16T12:00:52.901Z,8.87
2022-08-16T12:03:57.026Z,9.10
2022-08-16T12:07:00.129Z,7.50
2022-08-16T12:10:05.890Z,6.40
2022-08-16T12:13:11.530Z,5.87
2022-08-16T12:16:17.417Z,6.03
2022-08-16T12:19:35.192Z,5.67
2022-08-16T12:22:40.026Z,5.90
2022-08-16T12:25:44.586Z,5.50
2022-08-16T12:28:55.082Z,5.73
2022-08-16T12:32:12.296Z,5.80
2022-08-16T12:35:24.522Z,6.97
2022-08-16T12:38:40.848Z,6.13
2022-08-16T12:41:49.141Z,6.90
2022-08-16T12:44:54.630Z,6.67
2022-08-16T12:48:32.684Z,6.10
2022-08-16T12:51:57.633Z,5.93
2022-08-16T12:55:04.018Z,7.00
2022-08-16T12:58:13.984Z,6.77
2022-08-16T13:01:34.626Z,6.87
2022-08-16T13:04:37.811Z,6.80
2022-08-16T13:07:51.205Z,6.57
2022-08-16T13:10:55.299Z,6.23
2022-08-16T13:13:58.454Z,6.40
2022-08-16T13:17:06.941Z,5.93
2022-08-16T13:20:13.783Z,6.93
2022-08-16T13:23:17.203Z,6.50
2022-08-16T13:26:20.343Z,6.20
2022-08-16T13:29:23.427Z,6.50
2022-08-16T13:32:39.765Z,6.40
2022-08-16T13:35:45.741Z,6.77
2022-08-16T13:38:59.652Z,6.93
2022-08-16T13:42:04.167Z,6.93
2022-08-16T13:45:08.888Z,6.33
2022-08-16T13:48:24.385Z,5.43
2022-08-16T13:51:30.706Z,5.43
2022-08-16T13:54:34.041Z,6.33
2022-08-16T13:57:53.553Z,5.77
2022-08-16T14:01:01.681Z,5.50
2022-08-16T14:04:06.402Z,5.93
2022-08-16T14:07:13.262Z,6.03
2022-08-16T14:10:27.858Z,5.67
2022-08-16T14:13:31.039Z,5.73
2022-08-16T14:16:37.233Z,5.80
2022-08-16T14:19:44.781Z,5.43
2022-08-16T14:22:52.257Z,5.20
2022-08-16T14:25:58.049Z,4.57
2022-08-16T14:29:03.555Z,4.50
2022-08-16T14:32:08.310Z,4.53
2022-08-16T14:35:18.439Z,4.93
2022-08-16T14:38:24.067Z,4.33
2022-08-16T14:41:27.762Z,4.60
2022-08-16T14:44:31.391Z,4.47
2022-08-16T14:47:37.343Z,4.57
2022-08-16T14:50:41.920Z,4.07
2022-08-16T14:53:45.685Z,5.00
2022-08-16T14:56:54.512Z,4.50
2022-08-16T15:00:04.737Z,6.03
2022-08-16T15:03:11.087Z,5.07
2022-08-16T15:06:16.418Z,4.87
2022-08-16T15:09:19.875Z,5.10
2022-08-16T15:12:33.727Z,5.10
2022-08-16T15:15:37.967Z,5.20
2022-08-16T15:18:41.487Z,4.57
2022-08-16T15:21:53.954Z,5.63
2022-08-16T15:24:59.905Z,5.00
2022-08-16T15:28:06.015Z,4.97
2022-08-16T15:31:13.163Z,5.30
2022-08-16T15:34:19.104Z,4.70
2022-08-16T15:37:42.516Z,5.27
2022-08-16T15:40:54.982Z,4.80
2022-08-16T15:44:05.021Z,4.90
2022-08-16T15:47:16.481Z,5.47
2022-08-16T15:50:21.642Z,6.30
2022-08-16T15:53:27.366Z,9.27
2022-08-16T15:56:34.927Z,11.03
2022-08-16T15:59:49.274Z,14.07
2022-08-16T16:03:08.585Z,17.20
2022-08-16T16:06:12.257Z,14.83
2022-08-16T16:09:18.690Z,18.30
2022-08-16T16:12:51.581Z,17.20
2022-08-16T16:16:00.551Z,10.73
2022-08-16T16:19:04.147Z,10.47
2022-08-16T16:22:07.504Z,9.33
2022-08-16T16:25:15.841Z,7.77
2022-08-16T16:28:46.015Z,7.00
2022-08-16T16:31:59.738Z,6.97
2022-08-16T16:35:04.015Z,6.07
2022-08-16T16:38:09.105Z,6.90
2022-08-16T16:41:13.951Z,6.07
2022-08-16T16:44:18.222Z,5.50
2022-08-16T16:47:37.993Z,6.53
2022-08-16T16:50:45.496Z,5.93
2022-08-16T16:53:55.823Z,6.03
2022-08-16T16:57:00.955Z,5.83
2022-08-16T17:00:29.715Z,6.07
2022-08-16T17:03:30.357Z,6.93
2022-08-16T17:06:33.668Z,6.10
2022-08-16T17:09:39.318Z,7.00
2022-08-16T17:12:46.455Z,6.67
2022-08-16T17:15:52.609Z,5.93
2022-08-16T17:19:16.999Z,6.67
2022-08-16T17:22:21.421Z,6.70
2022-08-16T17:25:26.156Z,6.20
2022-08-16T17:28:58.441Z,6.10
2022-08-16T17:32:34.316Z,6.43
2022-08-16T17:35:33.662Z,6.30
2022-08-16T17:38:43.817Z,6.30
2022-08-16T17:41:47.574Z,7.70
2022-08-16T17:44:52.086Z,7.60
2022-08-16T17:47:55.644Z,7.20
2022-08-16T17:50:58.902Z,8.03
2022-08-16T17:54:03.427Z,7.30
2022-08-16T17:57:06.745Z,7.83
2022-08-16T18:00:20.186Z,7.80
2022-08-16T18:04:02.760Z,7.80
2022-08-16T18:06:49.569Z,7.30
2022-08-16T18:09:52.718Z,7.53
2022-08-16T18:12:58.357Z,7.23
2022-08-16T18:16:03.105Z,7.80
2022-08-16T18:19:06.372Z,7.97
2022-08-16T18:22:20.678Z,6.80
2022-08-16T18:25:23.986Z,8.43
2022-08-16T18:28:28.851Z,7.63
2022-08-16T18:31:34.052Z,7.37
2022-08-16T18:34:38.135Z,7.60
2022-08-16T18:37:41.266Z,7.03
2022-08-16T18:40:46.011Z,7.50
2022-08-16T18:44:23.867Z,8.07
2022-08-16T18:47:13.962Z,10.50
2022-08-16T18:50:17.753Z,10.60
2022-08-16T18:53:22.233Z,11.00
2022-08-16T18:56:57.287Z,11.37
2022-08-16T18:59:48.589Z,12.30
2022-08-16T19:02:58.623Z,11.97
2022-08-16T19:06:04.834Z,11.03
2022-08-16T19:09:08.013Z,9.80
2022-08-16T19:12:11.221Z,8.40
2022-08-16T19:15:22.621Z,9.13
2022-08-16T19:18:28.560Z,7.70
2022-08-16T19:21:40.116Z,8.30
2022-08-16T19:24:43.300Z,7.20
2022-08-16T19:27:47.327Z,7.50
2022-08-16T19:30:52.363Z,7.17
2022-08-16T19:33:57.049Z,7.80
2022-08-16T19:37:00.235Z,7.30
2022-08-16T19:40:04.413Z,6.23
2022-08-16T19:43:27.590Z,6.00
2022-08-16T19:46:30.746Z,5.93
2022-08-16T19:49:35.306Z,7.00
2022-08-16T19:52:38.503Z,5.60
2022-08-16T19:55:41.997Z,5.83
2022-08-16T19:59:08.755Z,5.80
2022-08-16T20:02:25.583Z,5.27
2022-08-16T20:05:39.384Z,5.17
2022-08-16T20:08:42.514Z,5.17
2022-08-16T20:11:46.081Z,5.23
2022-08-16T20:14:50.001Z,4.83
2022-08-16T20:17:53.915Z,4.90
2022-08-16T20:20:58.418Z,5.27
2022-08-16T20:24:31.977Z,5.50
2022-08-16T20:27:24.848Z,5.50
2022-08-16T20:30:28.863Z,4.50
2022-08-16T20:33:32.181Z,5.33
2022-08-16T20:36:36.673Z,5.17
2022-08-16T20:39:40.065Z,5.60
2022-08-16T20:42:43.831Z,6.00
2022-08-16T20:45:48.066Z,5.60
2022-08-16T20:48:51.316Z,6.57
2022-08-16T20:51:59.323Z,6.60
2022-08-16T20:55:02.778Z,6.23
2022-08-16T20:58:05.893Z,8.70
2022-08-16T21:01:10.045Z,6.80
2022-08-16T21:04:13.163Z,7.40
2022-08-16T21:07:19.735Z,6.50
2022-08-16T21:10:24.452Z,8.03
2022-08-16T21:13:30.747Z,9.60
2022-08-16T21:16:34.011Z,6.50
2022-08-16T21:19:37.576Z,6.83
2022-08-16T21:22:42.581Z,6.50
2022-08-16T21:25:57.739Z,7.40
2022-08-16T21:29:02.470Z,5.57
2022-08-16T21:32:11.147Z,6.20
2022-08-16T21:35:16.442Z,6.70
2022-08-16T21:38:29.209Z,7.23
2022-08-16T21:41:33.835Z,7.40
2022-08-16T21:44:38.710Z,9.13
2022-08-16T21:47:42.685Z,11.20
2022-08-16T21:50:45.895Z,10.90
2022-08-16T21:53:50.393Z,11.27
2022-08-16T21:56:53.486Z,9.50
2022-08-16T21:59:57.375Z,8.30
2022-08-16T22:03:03.479Z,7.30
2022-08-16T22:06:13.897Z,7.43
2022-08-16T22:09:19.043Z,5.63
2022-08-16T22:12:24.248Z,5.50
2022-08-16T22:15:27.647Z,6.40
2022-08-16T22:18:30.759Z,7.00
2022-08-16T22:21:34.785Z,7.37
2022-08-16T22:24:39.799Z,7.20
2022-08-16T22:27:43.528Z,5.80
2022-08-16T22:30:47.379Z,6.70
2022-08-16T22:33:50.583Z,6.63
2022-08-16T22:36:53.821Z,6.10
2022-08-16T22:39:58.346Z,6.60
2022-08-16T22:43:01.575Z,6.20
2022-08-16T22:46:04.842Z,6.30
2022-08-16T22:49:10.033Z,6.30
2022-08-16T22:52:13.127Z,7.00
2022-08-16T22:55:38.031Z,6.70
2022-08-16T22:58:41.084Z,6.43
2022-08-16T23:01:44.271Z,6.57
2022-08-16T23:04:47.367Z,6.67
2022-08-16T23:07:50.452Z,6.37
2022-08-16T23:10:55.581Z,5.20
2022-08-16T23:13:58.743Z,5.83
2022-08-16T23:17:01.795Z,8.80
2022-08-16T23:20:05.919Z,6.90
2022-08-16T23:23:20.306Z,7.67
2022-08-16T23:26:46.987Z,7.03
2022-08-16T23:29:49.034Z,8.97
2022-08-16T23:32:55.283Z,11.10
2022-08-16T23:36:00.330Z,9.23
2022-08-16T23:39:03.460Z,7.83
2022-08-16T23:42:15.497Z,8.67
2022-08-16T23:45:40.374Z,5.80
2022-08-16T23:49:57.315Z,6.40
2022-08-16T23:52:08.802Z,8.30
2022-08-16T23:55:12.340Z,10.70
2022-08-16T23:58:19.738Z,11.87
